createdAt,value
2024-01-08T00:01:13.459Z,48.4
2024-01-08T00:21:13.484Z,48.5
2024-01-08T00:41:13.233Z,48.5
2024-01-08T01:01:13.426Z,48.4
2024-01-08T01:21:13.271Z,48.5
2024-01-08T01:41:13.349Z,48.4
2024-01-08T02:01:13.247Z,48.4
2024-01-08T02:21:13.030Z,48.4
2024-01-08T02:41:12.987Z,48.4
2024-01-08T03:01:12.944Z,48.3
2024-01-08T03:21:13.118Z,49.0
2024-01-08T03:41:13.246Z,48.7
2024-01-08T04:01:12.901Z,48.5
2024-01-08T04:21:12.978Z,48.3
2024-01-08T04:41:13.083Z,48.3
2024-01-08T05:01:13.125Z,48.1
2024-01-08T05:21:13.082Z,48.4
2024-01-08T05:41:12.734Z,48.2
2024-01-08T06:01:12.713Z,48.1
2024-01-08T06:21:12.716Z,47.9
2024-01-08T06:41:12.671Z,47.8
2024-01-08T07:01:12.660Z,48.2
2024-01-08T07:21:12.620Z,48.3
2024-01-08T07:41:12.631Z,48.2
2024-01-08T08:01:12.595Z,48.2
2024-01-08T08:21:12.539Z,48.5
2024-01-08T08:41:12.563Z,48.5
2024-01-08T09:01:12.486Z,48.6
2024-01-08T09:21:12.572Z,48.5
2024-01-08T09:41:12.798Z,48.6
2024-01-08T10:01:12.485Z,48.6
2024-01-08T10:21:12.605Z,48.6
2024-01-08T10:41:12.680Z,48.6
2024-01-08T11:01:12.385Z,48.7
2024-01-08T11:21:12.556Z,48.8
2024-01-08T11:41:12.519Z,48.8
2024-01-08T12:01:12.301Z,48.9
2024-01-08T12:21:12.414Z,48.7
2024-01-08T12:41:12.499Z,48.3
2024-01-08T13:01:12.252Z,48.2
2024-01-08T13:21:12.349Z,48.6
2024-01-08T13:41:12.341Z,48.6
2024-01-08T14:01:12.238Z,48.5
2024-01-08T14:21:12.195Z,48.4
2024-01-08T14:41:12.273Z,48.4
2024-01-08T15:01:12.169Z,48.5
2024-01-08T15:21:12.298Z,48.4
2024-01-08T15:41:12.208Z,48.5
2024-01-08T16:01:12.198Z,48.6
2024-01-08T16:21:12.271Z,48.7
2024-01-08T16:41:12.241Z,47.2
2024-01-08T17:01:11.994Z,47.0
2024-01-08T17:21:12.035Z,47.1
2024-01-08T17:41:12.173Z,47.1
2024-01-08T18:01:11.833Z,47.1
2024-01-08T18:21:11.806Z,47.1
2024-01-08T18:41:11.770Z,47.0
2024-01-08T19:01:12.102Z,47.0
2024-01-08T19:21:12.056Z,46.8
2024-01-08T19:41:11.847Z,46.6
2024-01-08T20:01:12.081Z,46.5
2024-01-08T20:21:11.867Z,46.4
2024-01-08T20:41:11.668Z,46.3
2024-01-08T21:01:11.892Z,46.1
2024-01-08T21:21:11.866Z,46.8
2024-01-08T21:41:11.551Z,47.0
2024-01-08T22:01:11.580Z,46.8
2024-01-08T22:21:11.546Z,46.7
2024-01-08T22:41:11.613Z,46.5
2024-01-08T23:01:11.715Z,46.5
2024-01-08T23:21:11.704Z,46.4
2024-01-08T23:41:11.368Z,46.4
